Time;durP1;ratioP1;P1;durP2;ratioP2;P2;SDS_P1;SDS_P2;PMS_P1;PMS_P2;Temp;Humidity;BMP_temperature;BMP_pressure;BME280_temperature;BME280_humidity;BME280_pressure;Samples;Min_cycle;Max_cycle;Signal;HPM_P1;HPM_P2
2022/01/12 00:00:19;;;;;;;394.80;45.92;;;4.40;99.90;;;;;;5114257;28;20050;-65
2022/01/12 00:02:45;;;;;;;334.20;42.63;;;4.10;99.90;;;;;;5113930;28;20039;-65
2022/01/12 00:05:11;;;;;;;274.60;43.05;;;3.90;99.90;;;;;;5114164;28;20395;-64
2022/01/12 00:07:36;;;;;;;333.38;42.38;;;4.00;99.90;;;;;;5114576;28;20411;-65
2022/01/12 00:10:03;;;;;;;366.50;44.97;;;;;;;;;;5114107;28;20047;-65
2022/01/12 00:12:29;;;;;;;334.77;42.97;;;;;;;;;;5112734;28;20429;-65
2022/01/12 00:14:55;;;;;;;304.02;42.60;;;;;;;;;;5114267;28;20070;-64
2022/01/12 00:17:21;;;;;;;284.73;42.70;;;;;;;;;;5113739;28;20489;-65
2022/01/12 00:19:48;;;;;;;404.20;49.45;;;;;;;;;;5113897;28;20124;-65
2022/01/12 00:22:15;;;;;;;341.88;44.97;;;;;;;;;;5112852;28;20116;-65
2022/01/12 00:25:04;;;;;;;344.33;44.45;;;4.30;99.90;;;;;;5113877;28;20449;-65
2022/01/12 00:33:13;;;;;;;334.48;44.78;;;;;;;;;;5113475;28;20540;-64
2022/01/12 00:35:42;;;;;;;346.30;45.00;;;4.30;99.90;;;;;;5114052;28;20488;-64
2022/01/12 00:38:10;;;;;;;505.70;49.20;;;;;;;;;;5113650;28;20059;-64
2022/01/12 00:40:39;;;;;;;368.80;45.33;;;4.50;99.90;;;;;;5113880;28;20047;-64
2022/01/12 00:43:05;;;;;;;445.55;48.67;;;;;;;;;;5113328;28;20036;-64
2022/01/12 00:45:37;;;;;;;368.40;44.17;;;;;;;;;;5113402;28;20087;-64
2022/01/12 00:48:04;;;;;;;316.15;42.80;;;;;;;;;;5113566;28;20062;-65
2022/01/12 00:50:29;;;;;;;;;;;4.50;99.90;;;;;;5113984;28;20047;-65
2022/01/12 00:52:55;;;;;;;523.35;48.35;;;4.00;99.90;;;;;;5113759;28;20360;-65
2022/01/12 00:55:21;;;;;;;444.15;46.33;;;4.30;99.90;;;;;;5113558;28;20043;-65
2022/01/12 00:57:47;;;;;;;605.85;55.83;;;4.30;99.90;;;;;;5113939;28;20035;-65
2022/01/12 01:00:13;;;;;;;556.72;52.15;;;4.20;99.90;;;;;;5113355;28;20471;-64
2022/01/12 01:02:39;;;;;;;516.58;46.53;;;4.20;99.90;;;;;;5113575;28;20078;-65
2022/01/12 01:05:05;;;;;;;588.20;53.58;;;;;;;;;;5113497;28;20056;-64
2022/01/12 01:07:31;;;;;;;;;;;4.50;99.90;;;;;;5113797;28;20043;-65
2022/01/12 01:10:05;;;;;;;631.08;51.38;;;4.20;99.90;;;;;;5113445;28;19927;-65
2022/01/12 01:12:32;;;;;;;559.55;49.35;;;;;;;;;;5113402;28;20043;-65
2022/01/12 01:15:05;;;;;;;562.78;50.70;;;4.20;99.90;;;;;;5112935;28;20048;-65
2022/01/12 01:25:50;;;;;;;673.00;53.15;;;4.50;99.90;;;;;;5113318;28;20077;-65
2022/01/12 01:28:17;;;;;;;611.00;51.25;;;4.40;99.90;;;;;;5112998;28;20044;-65
2022/01/12 01:30:45;;;;;;;661.55;52.85;;;4.20;99.90;;;;;;5113297;28;20051;-65
2022/01/12 01:33:14;;;;;;;654.90;53.28;;;;;;;;;;5113752;28;20055;-65
2022/01/12 01:35:46;;;;;;;646.28;53.80;;;4.30;99.90;;;;;;5112189;28;20048;-65
2022/01/12 01:38:13;;;;;;;681.22;55.28;;;;;;;;;;5111981;28;20048;-65
2022/01/12 01:40:42;;;;;;;691.00;60.45;;;4.70;99.90;;;;;;5112821;28;20544;-65
2022/01/12 01:43:18;;;;;;;527.83;49.78;;;4.40;99.90;;;;;;5112614;28;20521;-65
2022/01/12 01:54:13;;;;;;;447.98;47.60;;;4.40;99.90;;;;;;5113073;28;20074;-65
2022/01/12 01:56:39;;;;;;;469.48;46.45;;;4.20;99.90;;;;;;5097762;28;20051;-66
2022/01/12 01:59:05;;;;;;;594.85;51.30;;;;;;;;;;5115389;28;20403;-65
2022/01/12 02:01:31;;;;;;;400.60;43.95;;;;;;;;;;5116879;28;20395;-65
2022/01/12 02:04:01;;;;;;;341.92;41.67;;;3.90;99.90;;;;;;5116776;28;20050;-65
2022/01/12 02:06:28;;;;;;;334.40;43.33;;;;;;;;;;5116496;28;20054;-65
2022/01/12 02:08:54;;;;;;;280.92;39.17;;;;;;;;;;5116682;28;20047;-65
2022/01/12 02:11:28;;;;;;;281.50;40.65;;;;;;;;;;5115227;28;20059;-65
2022/01/12 02:13:54;;;;;;;229.18;40.45;;;;;;;;;;5115073;28;20126;-65
2022/01/12 02:16:26;;;;;;;;;;;4.60;99.90;;;;;;5116638;28;20044;-65
2022/01/12 02:19:13;;;;;;;225.13;36.28;;;;;;;;;;5116754;27;19974;-64
2022/01/12 02:35:47;;;;;;;209.27;34.55;;;4.30;99.90;;;;;;5116047;28;20151;-65
2022/01/12 02:40:58;;;;;;;240.90;34.60;;;;;;;;;;5115652;28;20097;-65
2022/01/12 02:51:34;;;;;;;212.95;31.27;;;;;;;;;;5115725;28;20114;-64
2022/01/12 02:54:00;;;;;;;178.18;31.42;;;;;;;;;;5115612;28;20104;-65
2022/01/12 02:56:28;;;;;;;373.50;34.17;;;;;;;;;;5115306;28;20130;-64
2022/01/12 02:58:59;;;;;;;225.43;30.92;;;;;;;;;;5115935;28;20043;-64
2022/01/12 03:03:53;;;;;;;370.10;31.58;;;3.20;99.90;;;;;;5114329;28;20083;-65
2022/01/12 03:06:24;;;;;;;270.20;28.33;;;3.40;99.90;;;;;;5114860;28;20523;-65
2022/01/12 03:08:51;;;;;;;258.98;28.17;;;;;;;;;;5115347;28;20051;-65
2022/01/12 03:11:18;;;;;;;274.38;28.95;;;;;;;;;;5115023;28;20040;-65
2022/01/12 03:13:44;;;;;;;200.75;26.20;;;;;;;;;;5115093;28;20063;-65
2022/01/12 03:16:16;;;;;;;304.45;30.20;;;;;;;;;;5115087;28;20191;-65
2022/01/12 03:18:43;;;;;;;320.30;30.48;;;3.00;99.90;;;;;;5115352;28;20048;-65
2022/01/12 03:21:10;;;;;;;554.90;34.95;;;;;;;;;;5115001;28;20043;-65
2022/01/12 03:23:36;;;;;;;;;;;;;;;;;;5115374;28;20050;-65
2022/01/12 03:26:02;;;;;;;656.20;33.05;;;;;;;;;;5114702;28;19920;-65
2022/01/12 03:28:28;;;;;;;492.92;29.35;;;;;;;;;;5114862;28;20044;-65
2022/01/12 03:31:03;;;;;;;871.38;49.53;;;;;;;;;;5114737;28;20043;-65
2022/01/12 03:38:59;;;;;;;283.50;25.33;;;;;;;;;;5114500;28;20086;-65
2022/01/12 03:41:27;;;;;;;379.40;26.23;;;;;;;;;;5114553;28;20052;-65
2022/01/12 03:43:53;;;;;;;338.38;25.83;;;;;;;;;;5114537;28;20047;-65
2022/01/12 03:46:21;;;;;;;;;;;2.60;99.90;;;;;;5113730;28;20455;-65
2022/01/12 03:48:47;;;;;;;461.88;26.27;;;;;;;;;;5114462;28;19942;-65
2022/01/12 03:51:13;;;;;;;344.17;24.13;;;;;;;;;;5114388;28;20044;-65
2022/01/12 03:53:38;;;;;;;341.52;23.52;;;2.50;99.90;;;;;;5113234;28;20043;-65
2022/01/12 03:56:05;;;;;;;470.65;28.95;;;;;;;;;;5114023;28;20051;-65
2022/01/12 03:58:31;;;;;;;260.27;23.40;;;;;;;;;;5114285;28;20083;-65
2022/01/12 04:00:57;;;;;;;246.30;22.25;;;;;;;;;;5114194;28;20047;-65
2022/01/12 04:03:25;;;;;;;355.23;25.30;;;2.30;99.90;;;;;;5114183;28;20044;-65
2022/01/12 04:08:21;;;;;;;452.08;28.13;;;;;;;;;;5112812;28;20047;-64
2022/01/12 04:10:47;;;;;;;337.88;23.50;;;;;;;;;;5114094;28;20094;-66
2022/01/12 04:13:14;;;;;;;418.27;30.52;;;;;;;;;;5113961;28;20044;-65
2022/01/12 04:15:45;;;;;;;139.80;21.38;;;;;;;;;;5113935;27;20047;-64
2022/01/12 04:18:11;;;;;;;108.35;16.80;;;;;;;;;;5113507;28;20079;-65
2022/01/12 04:20:45;;;;;;;129.02;17.90;;;;;;;;;;5114472;28;20051;-65
2022/01/12 04:23:17;;;;;;;103.65;16.15;;;;;;;;;;5113843;28;20046;-65
2022/01/12 04:25:53;;;;;;;116.10;17.25;;;2.20;99.90;;;;;;5114686;28;20412;-65
2022/01/12 04:28:20;;;;;;;144.55;17.63;;;;;;;;;;5113845;28;20134;-65
2022/01/12 04:30:47;;;;;;;139.85;16.77;;;1.80;99.90;;;;;;5112336;28;20047;-65
2022/01/12 04:33:14;;;;;;;186.20;19.95;;;;;;;;;;5112006;28;20448;-65
2022/01/12 04:35:49;;;;;;;337.60;23.85;;;;;;;;;;5113731;28;20459;-65
2022/01/12 04:38:15;;;;;;;559.22;31.40;;;;;;;;;;5113568;28;20126;-65
2022/01/12 04:40:42;;;;;;;545.53;28.88;;;;;;;;;;5113662;28;20051;-65
2022/01/12 04:43:09;;;;;;;;;;;2.40;99.90;;;;;;5114015;28;20130;-65
2022/01/12 04:48:09;;;;;;;;;;;2.10;99.90;;;;;;5114001;28;20156;-65
2022/01/12 04:50:37;;;;;;;568.92;33.60;;;;;;;;;;5113593;28;19975;-65
2022/01/12 04:53:06;;;;;;;344.85;22.35;;;2.50;99.90;;;;;;5113473;28;20044;-65
2022/01/12 04:55:32;;;;;;;376.92;23.08;;;;;;;;;;5114266;28;20489;-65
2022/01/12 04:57:58;;;;;;;441.35;23.77;;;;;;;;;;5113553;28;20441;-65
2022/01/12 05:00:25;;;;;;;336.05;22.95;;;;;;;;;;5113567;28;20048;-65
2022/01/12 05:13:43;;;;;;;385.55;23.00;;;;;;;;;;5113438;28;20066;-65
2022/01/12 05:16:12;;;;;;;501.02;32.05;;;;;;;;;;5112206;28;20091;-65
2022/01/12 05:18:39;;;;;;;540.65;30.65;;;;;;;;;;5112939;28;20514;-66
2022/01/12 05:21:06;;;;;;;655.72;32.03;;;;;;;;;;5113062;28;20047;-65
2022/01/12 05:23:32;;;;;;;622.80;30.35;;;;;;;;;;5113320;28;20047;-65
2022/01/12 05:25:58;;;;;;;;;;;1.90;99.90;;;;;;5113766;28;20135;-65
2022/01/12 05:28:25;;;;;;;525.50;27.92;;;;;;;;;;5113215;28;19923;-65
2022/01/12 05:30:51;;;;;;;424.80;21.10;;;;;;;;;;5115124;28;20134;-66
2022/01/12 05:33:17;;;;;;;;;;;;;;;;;;5117036;28;20062;-66
2022/01/12 05:35:44;;;;;;;423.17;22.75;;;;;;;;;;5116840;28;20438;-65
2022/01/12 05:38:12;;;;;;;277.05;17.70;;;;;;;;;;5117089;28;20051;-65
2022/01/12 05:40:38;;;;;;;255.30;16.85;;;;;;;;;;5116972;28;20066;-65
2022/01/12 05:43:05;;;;;;;253.60;16.45;;;;;;;;;;5116980;28;20131;-65
2022/01/12 05:45:38;;;;;;;292.75;17.83;;;;;;;;;;5116828;28;20130;-65
2022/01/12 05:50:37;;;;;;;230.10;15.10;;;;;;;;;;5116810;28;20043;-66
2022/01/12 05:53:03;;;;;;;214.95;13.90;;;;;;;;;;5115394;28;20127;-65
2022/01/12 05:55:29;;;;;;;252.90;15.45;;;;;;;;;;5116967;28;20130;-65
2022/01/12 05:57:55;;;;;;;218.73;14.90;;;;;;;;;;5116597;28;20088;-65
2022/01/12 06:00:23;;;;;;;281.42;16.48;;;;;;;;;;5117111;28;20039;-65
2022/01/12 06:02:49;;;;;;;142.95;11.85;;;;;;;;;;5115547;28;20126;-65
2022/01/12 06:05:15;;;;;;;143.05;11.63;;;;;;;;;;5116391;28;20051;-66
2022/01/12 06:07:42;;;;;;;151.27;12.55;;;;;;;;;;5116420;28;20046;-65
2022/01/12 06:10:08;;;;;;;97.88;11.95;;;;;;;;;;5116409;28;20047;-65
2022/01/12 06:12:34;;;;;;;163.60;13.73;;;;;;;;;;5116293;28;20046;-65
2022/01/12 06:15:00;;;;;;;87.47;11.07;;;;;;;;;;5116321;28;20128;-65
2022/01/12 06:17:26;;;;;;;158.32;12.23;;;;;;;;;;5116530;28;20112;-65
2022/01/12 06:19:52;;;;;;;243.25;15.48;;;;;;;;;;5114692;28;20050;-65
2022/01/12 06:22:18;;;;;;;333.80;16.48;;;;;;;;;;5115102;28;20050;-65
2022/01/12 06:24:44;;;;;;;142.38;12.25;;;;;;;;;;5116206;28;20054;-66
2022/01/12 06:27:14;;;;;;;115.70;10.63;;;;;;;;;;5116088;28;20044;-66
2022/01/12 06:32:07;;;;;;;93.93;10.02;;;;;;;;;;5114715;28;20377;-65
2022/01/12 06:34:32;;;;;;;;;;;1.30;99.90;;;;;;5116341;28;20055;-65
2022/01/12 06:36:58;;;;;;;46.30;8.68;;;;;;;;;;5115799;28;19972;-66
2022/01/12 06:39:26;;;;;;;36.60;8.52;;;;;;;;;;5115769;28;20495;-65
2022/01/12 06:41:53;;;;;;;32.15;8.60;;;;;;;;;;5115465;28;20043;-66
2022/01/12 06:44:20;;;;;;;144.18;11.15;;;;;;;;;;5115722;28;20547;-65
2022/01/12 06:46:51;;;;;;;111.85;10.10;;;1.10;99.90;;;;;;5115439;28;20124;-65
2022/01/12 06:49:17;;;;;;;69.82;8.82;;;;;;;;;;5116176;28;20450;-66
2022/01/12 06:51:44;;;;;;;96.32;8.55;;;1.00;99.90;;;;;;5114193;28;20044;-66
2022/01/12 06:54:11;;;;;;;60.65;8.88;;;1.10;99.90;;;;;;5097717;28;20395;-65
2022/01/12 06:56:37;;;;;;;69.03;8.98;;;;;;;;;;5115493;28;20144;-65
2022/01/12 06:59:04;;;;;;;119.63;11.57;;;;;;;;;;5115542;28;20043;-65
2022/01/12 07:01:30;;;;;;;24.63;7.82;;;;;;;;;;5115169;28;20047;-66
2022/01/12 07:03:56;;;;;;;33.45;8.88;;;;;;;;;;5115355;28;20097;-65
2022/01/12 07:06:23;;;;;;;26.35;7.53;;;;;;;;;;5114732;28;20048;-65
2022/01/12 07:08:49;;;;;;;26.70;7.85;;;;;;;;;;5115213;28;20090;-65
2022/01/12 07:11:15;;;;;;;20.65;7.65;;;;;;;;;;5115339;28;20048;-66
2022/01/12 07:13:41;;;;;;;21.58;7.47;;;;;;;;;;5115183;28;20044;-66
2022/01/12 07:16:07;;;;;;;27.85;7.97;;;;;;;;;;5114873;28;20070;-66
2022/01/12 07:18:33;;;;;;;24.95;7.75;;;;;;;;;;5114083;28;20054;-66
2022/01/12 07:20:59;;;;;;;38.35;7.85;;;;;;;;;;5115239;28;20139;-66
2022/01/12 07:23:26;;;;;;;44.35;8.18;;;;;;;;;;5115179;28;20039;-66
2022/01/12 07:25:52;;;;;;;91.57;10.52;;;;;;;;;;5114728;28;20044;-66
2022/01/12 07:28:19;;;;;;;183.30;12.35;;;;;;;;;;5114904;28;20157;-66
2022/01/12 07:30:45;;;;;;;130.85;10.40;;;;;;;;;;5108705;28;20136;-66
2022/01/12 07:33:12;;;;;;;187.32;12.93;;;;;;;;;;5110186;28;20052;-68
2022/01/12 07:35:38;;;;;;;;;;;;;;;;;;5108632;28;20039;-66
2022/01/12 07:38:04;;;;;;;116.07;9.18;;;;;;;;;;5112365;28;19920;-67
2022/01/12 07:40:30;;;;;;;191.07;14.05;;;;;;;;;;5111656;28;20047;-68
2022/01/12 07:42:57;;;;;;;118.72;10.52;;;;;;;;;;5109627;28;20039;-66
2022/01/12 07:45:22;;;;;;;;;;;1.40;99.90;;;;;;5111856;28;20043;-66
2022/01/12 07:47:49;;;;;;;195.48;12.88;;;;;;;;;;5111354;28;19920;-66
2022/01/12 07:50:15;;;;;;;80.18;7.95;;;;;;;;;;5112415;28;20051;-66
2022/01/12 07:52:41;;;;;;;141.38;10.05;;;;;;;;;;5109043;28;20159;-66
2022/01/12 07:55:07;;;;;;;184.85;12.63;;;;;;;;;;5111924;28;20100;-67
2022/01/12 07:57:33;;;;;;;177.82;11.75;;;;;;;;;;5107717;28;20048;-66
2022/01/12 07:59:59;;;;;;;190.93;11.88;;;;;;;;;;5111342;28;20561;-66
2022/01/12 08:02:25;;;;;;;83.13;7.40;;;1.30;99.90;;;;;;5109683;28;20799;-66
2022/01/12 08:04:52;;;;;;;95.10;8.82;;;;;;;;;;5111072;28;20044;-69
2022/01/12 08:07:18;;;;;;;199.45;11.23;;;;;;;;;;5111184;28;20472;-67
2022/01/12 08:09:44;;;;;;;109.57;8.07;;;;;;;;;;5112364;28;20379;-66
2022/01/12 08:12:10;;;;;;;;;;;1.20;99.90;;;;;;5112318;28;20112;-67
2022/01/12 08:14:36;;;;;;;225.32;13.43;;;;;;;;;;5108806;28;20212;-67
2022/01/12 08:17:02;;;;;;;183.75;11.35;;;;;;;;;;5110142;28;20066;-67
2022/01/12 08:19:29;;;;;;;298.45;16.00;;;;;;;;;;5112006;28;20043;-66
2022/01/12 08:21:56;;;;;;;140.55;9.80;;;;;;;;;;5111626;28;20143;-66
2022/01/12 08:24:22;;;;;;;157.40;10.57;;;;;;;;;;5110065;28;20050;-66
2022/01/12 08:26:48;;;;;;;167.32;10.70;;;;;;;;;;5111634;28;20070;-70
2022/01/12 08:29:16;;;;;;;167.88;10.40;;;;;;;;;;5106226;28;20089;-66
2022/01/12 08:31:42;;;;;;;130.68;10.45;;;;;;;;;;5111580;28;20059;-66
2022/01/12 08:34:10;;;;;;;;;;;1.40;99.90;;;;;;5108470;28;20089;-66
2022/01/12 08:36:36;;;;;;;195.98;11.95;;;;;;;;;;5110022;28;20260;-70
2022/01/12 08:39:03;;;;;;;126.60;9.80;;;;;;;;;;5110820;28;20043;-66
2022/01/12 08:41:29;;;;;;;123.50;9.65;;;;;;;;;;5110376;28;20055;-65
2022/01/12 08:43:55;;;;;;;116.60;9.10;;;;;;;;;;5109639;28;20101;-65
2022/01/12 08:46:21;;;;;;;132.57;10.02;;;;;;;;;;5110523;28;20087;-65
2022/01/12 08:48:47;;;;;;;113.28;9.13;;;;;;;;;;5111440;28;20051;-66
2022/01/12 08:51:13;;;;;;;92.85;9.15;;;;;;;;;;5111246;28;20391;-65
2022/01/12 08:53:39;;;;;;;85.15;8.68;;;;;;;;;;5104737;28;20553;-67
2022/01/12 08:56:05;;;;;;;92.72;9.07;;;;;;;;;;5111306;28;20051;-65
2022/01/12 08:58:31;;;;;;;142.85;13.77;;;;;;;;;;5111319;28;20074;-65
2022/01/12 09:01:03;;;;;;;87.63;8.27;;;;;;;;;;5112107;28;20085;-64
2022/01/12 09:03:29;;;;;;;51.17;8.18;;;;;;;;;;5113019;28;20047;-64
2022/01/12 09:05:55;;;;;;;101.15;8.75;;;;;;;;;;5116236;28;20436;-67
2022/01/12 09:08:21;;;;;;;62.13;7.38;;;;;;;;;;5117383;28;20051;-67
2022/01/12 09:10:47;;;;;;;74.95;7.28;;;;;;;;;;5117381;28;20097;-65
2022/01/12 09:13:14;;;;;;;107.22;8.45;;;;;;;;;;5116785;28;20505;-65
2022/01/12 09:15:40;;;;;;;102.25;7.80;;;;;;;;;;5116225;28;20043;-65
2022/01/12 09:18:06;;;;;;;50.15;6.95;;;;;;;;;;5117327;28;20047;-65
2022/01/12 09:20:32;;;;;;;62.13;8.00;;;;;;;;;;5115878;28;20517;-65
2022/01/12 09:22:58;;;;;;;88.10;8.80;;;;;;;;;;5117183;28;20047;-65
2022/01/12 09:25:25;;;;;;;120.70;11.02;;;;;;;;;;5117142;28;20481;-65
2022/01/12 09:27:51;;;;;;;110.38;8.38;;;;;;;;;;5116478;28;20114;-65
2022/01/12 09:30:23;;;;;;;58.80;8.10;;;;;;;;;;5098584;28;20118;-64
2022/01/12 09:32:49;;;;;;;84.38;9.50;;;;;;;;;;5116272;28;20047;-64
2022/01/12 09:35:15;;;;;;;81.95;9.73;;;;;;;;;;5116323;28;20491;-64
2022/01/12 09:37:41;;;;;;;54.45;9.00;;;;;;;;;;5117011;28;20066;-65
2022/01/12 09:40:08;;;;;;;47.00;8.23;;;2.00;99.90;;;;;;5116781;28;20047;-64
2022/01/12 09:42:33;;;;;;;;;;;2.00;99.90;;;;;;5116550;28;20467;-64
2022/01/12 09:45:01;;;;;;;54.70;9.48;;;;;;;;;;5115557;28;19941;-64
2022/01/12 09:47:28;;;;;;;42.20;10.50;;;;;;;;;;5116543;28;20032;-63
2022/01/12 09:49:54;;;;;;;39.65;9.32;;;;;;;;;;5115472;28;20044;-64
2022/01/12 09:52:21;;;;;;;31.10;8.88;;;;;;;;;;5116519;28;20089;-66
2022/01/12 09:54:47;;;;;;;30.95;9.88;;;;;;;;;;5116545;28;20104;-64
2022/01/12 09:57:15;;;;;;;29.42;10.65;;;;;;;;;;5116351;28;20082;-65
2022/01/12 09:59:41;;;;;;;31.45;10.65;;;;;;;;;;5116430;28;20044;-65
2022/01/12 10:02:17;;;;;;;37.15;10.98;;;;;;;;;;5110062;28;20035;-64
2022/01/12 10:04:43;;;;;;;28.67;10.80;;;;;;;;;;5095010;28;20126;-65
2022/01/12 10:07:11;;;;;;;;;;;;;;;;;;5096589;28;20118;-65
2022/01/12 10:09:38;;;;;;;30.52;10.23;;;;;;;;;;5096096;28;19916;-65
2022/01/12 10:12:11;;;;;;;28.85;10.63;;;3.50;99.90;;;;;;5095946;28;20048;-65
2022/01/12 10:14:42;;;;;;;30.40;10.95;;;;;;;;;;5096744;28;20483;-65
2022/01/12 10:17:08;;;;;;;34.47;10.45;;;;;;;;;;5113921;28;20051;-65
2022/01/12 10:19:34;;;;;;;30.75;11.85;;;;;;;;;;5115896;28;20140;-65
2022/01/12 10:22:01;;;;;;;29.17;11.90;;;;;;;;;;5095758;28;20040;-65
2022/01/12 10:24:28;;;;;;;76.10;13.70;;;;;;;;;;5095272;28;20044;-66
2022/01/12 10:26:55;;;;;;;47.85;9.93;;;;;;;;;;5095661;28;20036;-65
2022/01/12 10:29:26;;;;;;;33.67;10.43;;;3.30;99.90;;;;;;5095767;28;20379;-65
2022/01/12 10:32:00;;;;;;;24.95;10.18;;;;;;;;;;5095550;28;20040;-65
2022/01/12 10:34:36;;;;;;;21.15;10.00;;;3.70;99.90;;;;;;5096131;28;20095;-65
2022/01/12 10:37:05;;;;;;;22.35;9.93;;;;;;;;;;5096002;28;20437;-65
2022/01/12 10:39:31;;;;;;;19.13;10.00;;;;;;;;;;5095295;28;20046;-65
2022/01/12 10:42:04;;;;;;;29.38;10.77;;;;;;;;;;5095558;28;20087;-65
2022/01/12 10:44:32;;;;;;;48.15;9.80;;;;;;;;;;5095115;28;20044;-65
2022/01/12 10:47:17;;;;;;;46.33;8.80;;;4.00;99.90;;;;;;5095362;28;20051;-65
2022/01/12 10:49:56;;;;;;;43.53;9.40;;;3.80;99.90;;;;;;5095517;28;20109;-65
2022/01/12 10:52:23;;;;;;;53.83;9.80;;;;;;;;;;5094138;28;20035;-65
2022/01/12 10:54:52;;;;;;;37.80;9.52;;;3.80;99.90;;;;;;5077220;28;20426;-65
2022/01/12 10:57:37;;;;;;;33.53;9.77;;;;;;;;;;5095309;28;20407;-65
2022/01/12 11:00:26;;;;;;;41.83;12.00;;;4.30;99.90;;;;;;5094451;28;20498;-66
2022/01/12 11:02:57;;;;;;;39.53;12.82;;;4.90;99.90;;;;;;5095113;28;20028;-66
2022/01/12 11:05:30;;;;;;;34.65;12.43;;;5.00;99.90;;;;;;5094908;28;20035;-66
2022/01/12 11:07:56;;;;;;;48.17;14.30;;;;;;;;;;5094456;28;20507;-65
2022/01/12 11:10:23;;;;;;;46.13;13.70;;;5.30;99.90;;;;;;5094930;28;20051;-66
2022/01/12 11:12:50;;;;;;;54.85;14.55;;;5.70;99.90;;;;;;5094775;28;20040;-66
2022/01/12 11:15:19;;;;;;;48.10;13.98;;;5.80;99.90;;;;;;5095593;28;20348;-65
2022/01/12 11:17:48;;;;;;;42.70;13.18;;;5.50;99.90;;;;;;5095143;28;20185;-66
2022/01/12 11:20:30;;;;;;;38.92;12.32;;;5.70;99.90;;;;;;5094922;28;20360;-66
2022/01/12 11:23:04;;;;;;;47.83;12.40;;;;;;;;;;5094476;28;20040;-66
2022/01/12 11:25:32;;;;;;;42.95;12.82;;;6.00;99.90;;;;;;5094636;28;20040;-66
2022/01/12 11:28:19;;;;;;;45.55;11.73;;;5.60;99.90;;;;;;5094472;28;20472;-66
2022/01/12 11:30:45;;;;;;;42.22;12.18;;;;;;;;;;5094714;28;20044;-66
2022/01/12 11:33:13;;;;;;;33.20;11.57;;;5.60;99.90;;;;;;5094375;28;20055;-66
2022/01/12 11:35:44;;;;;;;39.75;11.55;;;5.70;99.90;;;;;;5094473;28;20040;-66
2022/01/12 11:38:20;;;;;;;37.75;11.55;;;;;;;;;;5094292;28;20048;-66
2022/01/12 11:40:47;;;;;;;40.50;12.38;;;;;;;;;;5094868;28;20035;-66
2022/01/12 11:43:29;;;;;;;41.75;11.38;;;5.70;99.90;;;;;;5094275;28;20044;-66
2022/01/12 11:46:12;;;;;;;46.65;11.27;;;;;;;;;;5094545;28;20161;-66
2022/01/12 11:48:46;;;;;;;39.38;11.75;;;;;;;;;;5094214;28;20101;-66
2022/01/12 11:51:14;;;;;;;48.25;11.77;;;6.00;99.90;;;;;;5093920;28;20040;-66
2022/01/12 11:53:56;;;;;;;35.97;9.85;;;5.70;99.90;;;;;;5094028;28;20040;-66
2022/01/12 11:56:25;;;;;;;35.10;9.50;;;6.20;99.90;;;;;;5094057;28;20288;-66
2022/01/12 11:58:54;;;;;;;36.28;9.30;;;5.90;99.90;;;;;;5112805;28;20130;-66
2022/01/12 12:01:22;;;;;;;32.00;9.10;;;6.20;99.90;;;;;;5114164;28;20044;-66
2022/01/12 12:04:02;;;;;;;40.15;9.32;;;6.10;99.90;;;;;;5113044;28;20043;-66
2022/01/12 12:06:28;;;;;;;34.03;8.57;;;;;;;;;;5114317;28;20051;-66
2022/01/12 12:08:57;;;;;;;38.90;9.82;;;6.40;99.90;;;;;;5114186;28;20071;-66
2022/01/12 12:11:25;;;;;;;44.45;10.75;;;6.30;99.90;;;;;;5114257;28;20032;-66
2022/01/12 12:13:51;;;;;;;42.75;10.73;;;6.40;99.90;;;;;;5114097;28;20056;-66
2022/01/12 12:16:17;;;;;;;36.85;9.90;;;6.30;99.90;;;;;;5114065;28;20363;-66
2022/01/12 12:18:42;;;;;;;40.40;9.60;;;6.70;99.90;;;;;;5114388;28;20444;-66
2022/01/12 12:21:08;;;;;;;38.97;9.43;;;;;;;;;;5113481;28;20047;-66
2022/01/12 12:23:34;;;;;;;35.03;9.07;;;6.50;99.90;;;;;;5112935;28;20062;-66
2022/01/12 12:26:07;;;;;;;39.75;8.57;;;6.60;99.90;;;;;;5113964;28;20371;-66
2022/01/12 12:28:33;;;;;;;26.77;7.53;;;6.40;99.90;;;;;;5114113;28;20113;-66
2022/01/12 12:30:58;;;;;;;31.63;8.40;;;6.90;99.90;;;;;;5112924;28;20043;-66
2022/01/12 12:33:24;;;;;;;28.33;7.43;;;6.60;99.90;;;;;;5113938;28;20134;-66
2022/01/12 12:35:50;;;;;;;27.35;8.15;;;6.80;99.90;;;;;;5113623;28;20054;-66
2022/01/12 12:38:19;;;;;;;33.15;7.68;;;6.80;99.90;;;;;;5113772;28;20082;-66
2022/01/12 12:40:55;;;;;;;38.70;9.27;;;;;;;;;;5113471;28;20083;-66
2022/01/12 12:43:25;;;;;;;34.22;8.82;;;7.10;99.90;;;;;;5114540;28;20115;-66
2022/01/12 12:45:57;;;;;;;35.78;7.45;;;7.00;99.90;;;;;;5095886;28;20130;-66
2022/01/12 12:48:29;;;;;;;29.58;7.35;;;6.90;99.90;;;;;;5113727;28;20055;-66
2022/01/12 12:51:02;;;;;;;24.23;7.13;;;6.90;99.90;;;;;;5113603;28;20047;-66
2022/01/12 12:53:29;;;;;;;22.50;6.28;;;7.00;99.90;;;;;;5113647;28;20127;-66
2022/01/12 12:55:56;;;;;;;23.73;6.20;;;7.50;99.90;;;;;;5113653;28;20039;-66
2022/01/12 12:58:25;;;;;;;26.50;5.95;;;7.50;99.90;;;;;;5112653;28;20043;-66
2022/01/12 13:00:50;;;;;;;22.00;6.07;;;7.90;99.90;;;;;;5113643;28;20108;-66
2022/01/12 13:03:16;;;;;;;21.95;6.00;;;7.70;99.90;;;;;;5113628;28;20402;-66
2022/01/12 13:05:42;;;;;;;22.88;4.97;;;8.40;99.90;;;;;;5112184;28;20048;-66
2022/01/12 13:08:10;;;;;;;22.25;5.07;;;8.40;99.90;;;;;;5113586;28;20126;-67
2022/01/12 13:10:36;;;;;;;14.85;4.90;;;8.90;99.90;;;;;;5113449;28;20047;-66
2022/01/12 13:13:05;;;;;;;24.10;4.95;;;9.00;99.90;;;;;;5113423;28;20147;-66
2022/01/12 13:15:33;;;;;;;20.63;5.30;;;9.20;99.90;;;;;;5113433;28;20071;-66
2022/01/12 13:18:05;;;;;;;16.73;5.57;;;9.20;99.90;;;;;;5113391;28;20421;-66
2022/01/12 13:23:20;;;;;;;26.17;5.10;;;9.40;99.90;;;;;;5113069;28;20517;-66
2022/01/12 13:25:46;;;;;;;17.80;5.65;;;9.50;99.90;;;;;;5112356;28;20400;-66
2022/01/12 13:28:12;;;;;;;17.13;5.13;;;9.20;99.90;;;;;;5113828;28;20044;-66
2022/01/12 13:30:58;;;;;;;22.40;4.72;;;9.10;99.90;;;;;;5113353;28;20042;-66
2022/01/12 13:33:38;;;;;;;16.80;4.18;;;9.20;99.90;;;;;;5112648;28;20471;-66
2022/01/12 13:36:17;;;;;;;20.15;4.50;;;9.30;99.90;;;;;;5113233;28;20456;-66
2022/01/12 13:38:47;;;;;;;19.70;4.22;;;9.30;99.90;;;;;;5113295;28;20468;-66
2022/01/12 13:41:15;;;;;;;18.50;5.05;;;9.20;99.90;;;;;;5113245;28;20054;-66
2022/01/12 13:43:45;;;;;;;23.40;4.43;;;9.20;99.90;;;;;;5112105;28;20416;-66
2022/01/12 13:46:18;;;;;;;20.90;4.40;;;9.00;99.90;;;;;;5113165;28;20040;-66
2022/01/12 13:51:36;;;;;;;21.88;4.00;;;7.90;99.90;;;;;;5114515;28;20127;-66
2022/01/12 13:54:09;;;;;;;24.83;4.05;;;7.90;99.90;;;;;;5116031;28;20101;-66
2022/01/12 13:56:44;;;;;;;16.80;3.95;;;7.60;99.90;;;;;;5116641;28;20100;-66
2022/01/12 13:59:12;;;;;;;21.23;4.00;;;7.60;99.90;;;;;;5116816;28;20097;-66
2022/01/12 14:01:41;;;;;;;23.38;4.88;;;7.40;99.90;;;;;;5116447;28;20043;-67
2022/01/12 14:04:12;;;;;;;20.17;3.90;;;7.40;99.90;;;;;;5116875;28;20410;-66
2022/01/12 14:06:41;;;;;;;25.42;5.38;;;7.50;99.90;;;;;;5116686;28;20083;-66
2022/01/12 14:09:21;;;;;;;29.80;4.70;;;7.60;99.90;;;;;;5116546;28;20360;-66
2022/01/12 14:11:48;;;;;;;24.27;5.28;;;;;;;;;;5116567;28;20122;-66
2022/01/12 14:14:15;;;;;;;23.83;4.53;;;7.40;99.90;;;;;;5116471;28;20040;-66
2022/01/12 14:16:41;;;;;;;27.13;5.20;;;7.30;99.90;;;;;;5115204;28;20085;-66
2022/01/12 14:19:07;;;;;;;;;;;7.30;99.90;;;;;;5116827;28;20134;-66
2022/01/12 14:21:33;;;;;;;28.60;4.55;;;7.40;99.90;;;;;;5115327;28;19916;-66
2022/01/12 14:23:59;;;;;;;19.80;4.22;;;7.10;99.90;;;;;;5116210;28;20176;-66
2022/01/12 14:26:35;;;;;;;24.83;4.47;;;7.00;99.90;;;;;;5116176;28;20452;-66
2022/01/12 14:29:01;;;;;;;20.25;3.75;;;7.00;99.90;;;;;;5115456;28;20100;-66
2022/01/12 14:31:27;;;;;;;19.33;3.47;;;7.20;99.90;;;;;;5115059;28;20169;-66
2022/01/12 14:33:54;;;;;;;22.77;3.83;;;7.10;99.90;;;;;;5116199;28;20136;-66
2022/01/12 14:36:21;;;;;;;22.58;4.18;;;7.10;99.90;;;;;;5116052;28;20086;-66
2022/01/12 14:38:46;;;;;;;17.50;5.20;;;7.20;99.90;;;;;;5098007;28;20350;-66
2022/01/12 14:41:12;;;;;;;18.40;7.15;;;6.90;99.90;;;;;;5114679;28;20118;-66
2022/01/12 14:43:39;;;;;;;21.83;7.43;;;6.90;99.90;;;;;;5115923;28;20410;-66
2022/01/12 14:46:04;;;;;;;19.75;8.38;;;6.60;99.90;;;;;;5115415;28;20043;-66
2022/01/12 14:48:30;;;;;;;17.48;7.70;;;6.50;99.90;;;;;;5115781;28;20042;-66
2022/01/12 14:50:57;;;;;;;18.83;6.88;;;6.60;99.90;;;;;;5114869;28;20036;-66
2022/01/12 14:53:23;;;;;;;21.42;6.93;;;6.40;99.90;;;;;;5115851;28;20061;-67
2022/01/12 14:55:50;;;;;;;;;;;6.20;99.90;;;;;;5116049;28;20048;-66
2022/01/12 14:58:17;;;;;;;26.02;6.85;;;6.30;99.90;;;;;;5115547;28;19916;-66
2022/01/12 15:00:44;;;;;;;25.65;6.22;;;6.20;99.90;;;;;;5114117;28;20069;-66
2022/01/12 15:03:12;;;;;;;19.73;6.50;;;6.00;99.90;;;;;;5115206;28;20031;-66